Oriana — ZCDU9 — position and weather

sailwx.info

Track history (hours):
 
Tides and Currents Weather Stations Pressure Air Temp Water Temp Dewpoint Dewpoint Depression Visibility Wind Speed Wind Dir Waves Ship Positions

Oriana (Bermuda)

Last reported at 2016-May-01 03:00 UTC. Time now 2016-May-03 03:00 UTC.
Position N 32°18' W 069°30'.

Length 261 m; beam 32.2 m; draft 8.2 m.

Type: Ship. MMSI: 310529000.

Wind from 030 at 19 knots

Barometer 1018.7 mb
Air temperature 20.5 ° C
Visibility: greater than 10.8 NM
Dewpoint 16.4 ° C
Water temperature 21.0 ° C

Date/timePositionNaut miles runAvg speedWind from/ knotsBaromVisibWave heightAir tempDewpointWater temp
2016-May-01 03:00N 32°18' W 069°30'44319.7 030 / 191018.710.8 20.516.421.0
2016-Apr-30 04:33N 32°36' W 078°14'2220.3
2016-Apr-30 03:26N 32°37' W 078°41'1820.1
2016-Apr-30 02:33N 32°37' W 079°02'3014.1
2016-Apr-30 00:27N 32°39' W 079°37'17 1.6
2016-Apr-29 13:18N 32°47' W 079°55'  
2016-Apr-27 03:33N 27°09' W 079°52'1514.6
2016-Apr-27 02:33N 26°55' W 079°48'1414.4
2016-Apr-27 01:33N 26°41' W 079°46'1615.7
2016-Apr-27 00:33N 26°25' W 079°48'1716.8
2016-Apr-26 23:33N 26°12' W 079°59'9 9.5
2016-Apr-26 22:34N 26°06' W 080°07'0 0.0
2016-Apr-26 21:28N 26°06' W 080°07'0 0.0
2016-Apr-26 20:29N 26°06' W 080°07'0 0.0
2016-Apr-26 19:22N 26°06' W 080°07'0 0.0
2016-Apr-26 18:33N 26°06' W 080°07'0 0.0
2016-Apr-26 17:33N 26°06' W 080°07'0 0.0
2016-Apr-26 16:33N 26°06' W 080°07'0 0.0
2016-Apr-26 15:31N 26°06' W 080°07'0 0.0
2016-Apr-26 14:31N 26°06' W 080°07'0 0.0
2016-Apr-26 13:33N 26°06' W 080°07'0 0.0
2016-Apr-26 12:31N 26°06' W 080°07'0 0.0
2016-Apr-26 11:31N 26°06' W 080°07'0 0.0
2016-Apr-26 10:33N 26°06' W 080°07'4 4.5
2016-Apr-26 09:34N 26°06' W 080°02'1615.5
2016-Apr-26 08:33N 25°59' W 079°46'1515.2
2016-Apr-26 07:34N 25°45' W 079°40'  
2016-Apr-24 00:29N 29°38' W 089°57'1314.3
2016-Apr-23 23:33N 29°52' W 089°59'6 6.0
2016-Apr-23 22:33N 29°57' W 090°01'2 2.0
2016-Apr-23 21:31N 29°57' W 090°04'0 0.0
2016-Apr-23 20:33N 29°57' W 090°04'0 0.0
2016-Apr-23 19:33N 29°57' W 090°04'0 0.0
2016-Apr-23 18:32N 29°57' W 090°04'0 0.0
2016-Apr-23 17:32N 29°57' W 090°04'0 0.0
2016-Apr-23 16:31N 29°57' W 090°04'0 0.0
2016-Apr-23 15:33N 29°57' W 090°04'0 0.0
2016-Apr-23 14:31N 29°57' W 090°04'0 0.0
2016-Apr-23 13:31N 29°57' W 090°04'0 0.0
2016-Apr-23 12:31N 29°57' W 090°04'0 0.0
2016-Apr-23 11:31N 29°57' W 090°04'0 0.0
2016-Apr-23 10:31N 29°57' W 090°04'0 0.0
2016-Apr-23 09:31N 29°57' W 090°04'0 0.0
2016-Apr-23 08:31N 29°57' W 090°04'0 0.0
2016-Apr-23 07:31N 29°57' W 090°04'0 0.0
2016-Apr-23 06:31N 29°57' W 090°04'0 0.0
2016-Apr-23 05:31N 29°57' W 090°04'0 0.0
2016-Apr-23 04:31N 29°57' W 090°04'0 0.0
2016-Apr-23 03:31N 29°57' W 090°04'0 0.0
2016-Apr-23 02:31N 29°57' W 090°04'0 0.0
2016-Apr-23 01:31N 29°57' W 090°04'0 0.0
2016-Apr-23 00:31N 29°57' W 090°04'0 0.0
2016-Apr-22 23:31N 29°57' W 090°04'0 0.0
2016-Apr-22 22:31N 29°57' W 090°04'0 0.0
2016-Apr-22 21:31N 29°57' W 090°04'0 0.0
2016-Apr-22 20:31N 29°57' W 090°04'0 0.0
2016-Apr-22 19:31N 29°57' W 090°04'0 0.0
2016-Apr-22 18:31N 29°57' W 090°04'0 0.0
2016-Apr-22 17:31N 29°57' W 090°04'0 0.0
2016-Apr-22 16:31N 29°57' W 090°04'0 0.0
2016-Apr-22 15:31N 29°57' W 090°04'0 0.0
2016-Apr-22 14:31N 29°57' W 090°04'0 0.0
2016-Apr-22 13:31N 29°57' W 090°04'0 0.0
2016-Apr-22 12:33N 29°57' W 090°04'0 0.0
2016-Apr-22 11:32N 29°57' W 090°04'0 0.0
2016-Apr-22 10:31N 29°57' W 090°04'3 2.7
2016-Apr-22 09:33N 29°57' W 090°01'5 4.6
2016-Apr-22 08:33N 29°53' W 089°58'1010.2
2016-Apr-22 07:33N 29°43' W 089°59'  
Track history (hours):
 
Tides and Currents Weather Stations Pressure Air Temp Water Temp Dewpoint Dewpoint Depression Visibility Wind Speed Wind Dir Waves Ship Positions

Oriana (Bermuda)

Last reported at 2016-May-01 03:00 UTC. Time now 2016-May-03 03:00 UTC.
Position N 32°18' W 069°30'.

Length 261 m; beam 32.2 m; draft 8.2 m.

Type: Ship. MMSI: 310529000.

Wind from 030 at 19 knots

Barometer 1018.7 mb
Air temperature 20.5 ° C
Visibility: greater than 10.8 NM
Dewpoint 16.4 ° C
Water temperature 21.0 ° C

Date/timePositionNaut miles runAvg speedWind from/ knotsBaromVisibWave heightAir tempDewpointWater temp
2016-May-01 03:00N 32°18' W 069°30'44319.7 030 / 191018.710.8 20.516.421.0
2016-Apr-30 04:33N 32°36' W 078°14'2220.3
2016-Apr-30 03:26N 32°37' W 078°41'1820.1
2016-Apr-30 02:33N 32°37' W 079°02'3014.1
2016-Apr-30 00:27N 32°39' W 079°37'17 1.6
2016-Apr-29 13:18N 32°47' W 079°55'  
2016-Apr-27 03:33N 27°09' W 079°52'1514.6
2016-Apr-27 02:33N 26°55' W 079°48'1414.4
2016-Apr-27 01:33N 26°41' W 079°46'1615.7
2016-Apr-27 00:33N 26°25' W 079°48'1716.8
2016-Apr-26 23:33N 26°12' W 079°59'9 9.5
2016-Apr-26 22:34N 26°06' W 080°07'0 0.0
2016-Apr-26 21:28N 26°06' W 080°07'0 0.0
2016-Apr-26 20:29N 26°06' W 080°07'0 0.0
2016-Apr-26 19:22N 26°06' W 080°07'0 0.0
2016-Apr-26 18:33N 26°06' W 080°07'0 0.0
2016-Apr-26 17:33N 26°06' W 080°07'0 0.0
2016-Apr-26 16:33N 26°06' W 080°07'0 0.0
2016-Apr-26 15:31N 26°06' W 080°07'0 0.0
2016-Apr-26 14:31N 26°06' W 080°07'0 0.0
2016-Apr-26 13:33N 26°06' W 080°07'0 0.0
2016-Apr-26 12:31N 26°06' W 080°07'0 0.0
2016-Apr-26 11:31N 26°06' W 080°07'0 0.0
2016-Apr-26 10:33N 26°06' W 080°07'4 4.5
2016-Apr-26 09:34N 26°06' W 080°02'1615.5
2016-Apr-26 08:33N 25°59' W 079°46'1515.2
2016-Apr-26 07:34N 25°45' W 079°40'  
2016-Apr-24 00:29N 29°38' W 089°57'1314.3
2016-Apr-23 23:33N 29°52' W 089°59'6 6.0
2016-Apr-23 22:33N 29°57' W 090°01'2 2.0
2016-Apr-23 21:31N 29°57' W 090°04'0 0.0
2016-Apr-23 20:33N 29°57' W 090°04'0 0.0
2016-Apr-23 19:33N 29°57' W 090°04'0 0.0
2016-Apr-23 18:32N 29°57' W 090°04'0 0.0
2016-Apr-23 17:32N 29°57' W 090°04'0 0.0
2016-Apr-23 16:31N 29°57' W 090°04'0 0.0
2016-Apr-23 15:33N 29°57' W 090°04'0 0.0
2016-Apr-23 14:31N 29°57' W 090°04'0 0.0
2016-Apr-23 13:31N 29°57' W 090°04'0 0.0
2016-Apr-23 12:31N 29°57' W 090°04'0 0.0
2016-Apr-23 11:31N 29°57' W 090°04'0 0.0
2016-Apr-23 10:31N 29°57' W 090°04'0 0.0
2016-Apr-23 09:31N 29°57' W 090°04'0 0.0
2016-Apr-23 08:31N 29°57' W 090°04'0 0.0
2016-Apr-23 07:31N 29°57' W 090°04'0 0.0
2016-Apr-23 06:31N 29°57' W 090°04'0 0.0
2016-Apr-23 05:31N 29°57' W 090°04'0 0.0
2016-Apr-23 04:31N 29°57' W 090°04'0 0.0
2016-Apr-23 03:31N 29°57' W 090°04'0 0.0
2016-Apr-23 02:31N 29°57' W 090°04'0 0.0
2016-Apr-23 01:31N 29°57' W 090°04'0 0.0
2016-Apr-23 00:31N 29°57' W 090°04'0 0.0
2016-Apr-22 23:31N 29°57' W 090°04'0 0.0
2016-Apr-22 22:31N 29°57' W 090°04'0 0.0
2016-Apr-22 21:31N 29°57' W 090°04'0 0.0
2016-Apr-22 20:31N 29°57' W 090°04'0 0.0
2016-Apr-22 19:31N 29°57' W 090°04'0 0.0
2016-Apr-22 18:31N 29°57' W 090°04'0 0.0
2016-Apr-22 17:31N 29°57' W 090°04'0 0.0
2016-Apr-22 16:31N 29°57' W 090°04'0 0.0
2016-Apr-22 15:31N 29°57' W 090°04'0 0.0
2016-Apr-22 14:31N 29°57' W 090°04'0 0.0
2016-Apr-22 13:31N 29°57' W 090°04'0 0.0
2016-Apr-22 12:33N 29°57' W 090°04'0 0.0
2016-Apr-22 11:32N 29°57' W 090°04'0 0.0
2016-Apr-22 10:31N 29°57' W 090°04'3 2.7
2016-Apr-22 09:33N 29°57' W 090°01'5 4.6
2016-Apr-22 08:33N 29°53' W 089°58'1010.2
2016-Apr-22 07:33N 29°43' W 089°59'  

Dump ship's entire track history